sensor_id;sensor_type;location;lat;lon;timestamp;P1;durP1;ratioP1;P2;durP2;ratioP2
32748;SDS011;19119;52.474;13.710;2023-07-02T00:00:06;2.08;;;1.52;;
32748;SDS011;19119;52.474;13.710;2023-07-02T00:02:33;3.70;;;1.85;;
32748;SDS011;19119;52.474;13.710;2023-07-02T00:04:59;4.43;;;2.00;;
32748;SDS011;19119;52.474;13.710;2023-07-02T00:07:24;2.08;;;1.30;;
32748;SDS011;19119;52.474;13.710;2023-07-02T00:09:53;5.32;;;1.92;;
32748;SDS011;19119;52.474;13.710;2023-07-02T00:12:19;2.88;;;1.50;;
32748;SDS011;19119;52.474;13.710;2023-07-02T00:14:44;3.17;;;2.05;;
32748;SDS011;19119;52.474;13.710;2023-07-02T00:17:10;4.35;;;1.65;;
32748;SDS011;19119;52.474;13.710;2023-07-02T00:19:39;2.53;;;1.67;;
32748;SDS011;19119;52.474;13.710;2023-07-02T00:22:11;3.53;;;1.98;;
32748;SDS011;19119;52.474;13.710;2023-07-02T00:24:37;1.60;;;1.35;;
32748;SDS011;19119;52.474;13.710;2023-07-02T00:27:03;3.03;;;1.60;;
32748;SDS011;19119;52.474;13.710;2023-07-02T00:29:29;4.53;;;1.77;;
32748;SDS011;19119;52.474;13.710;2023-07-02T00:31:54;2.17;;;1.58;;
32748;SDS011;19119;52.474;13.710;2023-07-02T00:34:20;2.45;;;1.90;;
32748;SDS011;19119;52.474;13.710;2023-07-02T00:36:45;2.35;;;1.60;;
32748;SDS011;19119;52.474;13.710;2023-07-02T00:39:12;2.25;;;1.70;;
32748;SDS011;19119;52.474;13.710;2023-07-02T00:41:37;2.70;;;2.10;;
32748;SDS011;19119;52.474;13.710;2023-07-02T00:44:03;3.47;;;1.63;;
32748;SDS011;19119;52.474;13.710;2023-07-02T00:46:29;3.03;;;1.80;;
32748;SDS011;19119;52.474;13.710;2023-07-02T00:48:55;5.65;;;1.60;;
32748;SDS011;19119;52.474;13.710;2023-07-02T00:51:21;2.83;;;1.60;;
32748;SDS011;19119;52.474;13.710;2023-07-02T00:53:49;2.40;;;1.60;;
32748;SDS011;19119;52.474;13.710;2023-07-02T00:56:16;2.58;;;1.88;;
32748;SDS011;19119;52.474;13.710;2023-07-02T00:58:42;5.32;;;1.60;;
32748;SDS011;19119;52.474;13.710;2023-07-02T01:01:12;2.90;;;1.80;;
32748;SDS011;19119;52.474;13.710;2023-07-02T01:03:39;2.45;;;1.90;;
32748;SDS011;19119;52.474;13.710;2023-07-02T01:06:17;4.68;;;1.90;;
32748;SDS011;19119;52.474;13.710;2023-07-02T01:08:45;2.70;;;1.90;;
32748;SDS011;19119;52.474;13.710;2023-07-02T01:11:12;2.97;;;2.20;;
32748;SDS011;19119;52.474;13.710;2023-07-02T01:13:37;2.83;;;1.90;;
32748;SDS011;19119;52.474;13.710;2023-07-02T01:16:03;2.97;;;1.90;;
32748;SDS011;19119;52.474;13.710;2023-07-02T01:18:29;4.13;;;1.88;;
32748;SDS011;19119;52.474;13.710;2023-07-02T01:20:55;3.50;;;2.55;;
32748;SDS011;19119;52.474;13.710;2023-07-02T01:23:21;3.28;;;2.35;;
32748;SDS011;19119;52.474;13.710;2023-07-02T01:25:46;3.70;;;2.50;;
32748;SDS011;19119;52.474;13.710;2023-07-02T01:28:12;4.40;;;2.78;;
32748;SDS011;19119;52.474;13.710;2023-07-02T01:30:38;2.88;;;2.10;;
32748;SDS011;19119;52.474;13.710;2023-07-02T01:33:04;4.35;;;2.80;;
32748;SDS011;19119;52.474;13.710;2023-07-02T01:35:29;3.78;;;2.53;;
32748;SDS011;19119;52.474;13.710;2023-07-02T01:37:55;5.60;;;2.33;;
32748;SDS011;19119;52.474;13.710;2023-07-02T01:40:20;3.45;;;2.58;;
32748;SDS011;19119;52.474;13.710;2023-07-02T01:42:46;4.47;;;2.80;;
32748;SDS011;19119;52.474;13.710;2023-07-02T01:45:11;3.95;;;2.42;;
32748;SDS011;19119;52.474;13.710;2023-07-02T01:47:37;3.55;;;2.85;;
32748;SDS011;19119;52.474;13.710;2023-07-02T01:50:03;5.18;;;3.03;;
32748;SDS011;19119;52.474;13.710;2023-07-02T01:52:30;3.55;;;2.75;;
32748;SDS011;19119;52.474;13.710;2023-07-02T01:54:58;4.78;;;3.05;;
32748;SDS011;19119;52.474;13.710;2023-07-02T01:57:24;5.28;;;3.60;;
32748;SDS011;19119;52.474;13.710;2023-07-02T01:59:49;4.15;;;3.10;;
32748;SDS011;19119;52.474;13.710;2023-07-02T02:02:15;4.60;;;3.60;;
32748;SDS011;19119;52.474;13.710;2023-07-02T02:04:40;5.25;;;3.25;;
32748;SDS011;19119;52.474;13.710;2023-07-02T02:07:06;4.95;;;2.95;;
32748;SDS011;19119;52.474;13.710;2023-07-02T02:09:31;4.13;;;3.28;;
32748;SDS011;19119;52.474;13.710;2023-07-02T02:11:57;4.60;;;3.00;;
32748;SDS011;19119;52.474;13.710;2023-07-02T02:14:22;7.00;;;3.42;;
32748;SDS011;19119;52.474;13.710;2023-07-02T02:16:48;6.55;;;4.45;;
32748;SDS011;19119;52.474;13.710;2023-07-02T02:19:14;3.60;;;3.30;;
32748;SDS011;19119;52.474;13.710;2023-07-02T02:21:40;4.20;;;2.95;;
32748;SDS011;19119;52.474;13.710;2023-07-02T02:24:06;5.30;;;3.17;;
32748;SDS011;19119;52.474;13.710;2023-07-02T02:26:32;5.63;;;3.10;;
32748;SDS011;19119;52.474;13.710;2023-07-02T02:28:58;6.30;;;3.80;;
32748;SDS011;19119;52.474;13.710;2023-07-02T02:31:24;4.72;;;3.72;;
32748;SDS011;19119;52.474;13.710;2023-07-02T02:33:49;5.75;;;4.22;;
32748;SDS011;19119;52.474;13.710;2023-07-02T02:36:14;6.05;;;4.13;;
32748;SDS011;19119;52.474;13.710;2023-07-02T02:38:41;6.53;;;4.45;;
32748;SDS011;19119;52.474;13.710;2023-07-02T02:41:07;8.43;;;4.68;;
32748;SDS011;19119;52.474;13.710;2023-07-02T02:43:33;6.55;;;4.70;;
32748;SDS011;19119;52.474;13.710;2023-07-02T02:45:59;6.28;;;4.75;;
32748;SDS011;19119;52.474;13.710;2023-07-02T02:48:24;5.40;;;4.82;;
32748;SDS011;19119;52.474;13.710;2023-07-02T02:50:50;8.60;;;4.75;;
32748;SDS011;19119;52.474;13.710;2023-07-02T02:53:16;6.95;;;4.30;;
32748;SDS011;19119;52.474;13.710;2023-07-02T02:55:41;6.50;;;4.93;;
32748;SDS011;19119;52.474;13.710;2023-07-02T02:58:06;5.72;;;4.05;;
32748;SDS011;19119;52.474;13.710;2023-07-02T03:00:32;6.80;;;4.38;;
32748;SDS011;19119;52.474;13.710;2023-07-02T03:02:58;6.53;;;4.00;;
32748;SDS011;19119;52.474;13.710;2023-07-02T03:05:23;6.35;;;4.47;;
32748;SDS011;19119;52.474;13.710;2023-07-02T03:07:49;6.55;;;4.22;;
32748;SDS011;19119;52.474;13.710;2023-07-02T03:10:15;6.70;;;4.32;;
32748;SDS011;19119;52.474;13.710;2023-07-02T03:12:41;6.88;;;3.10;;
32748;SDS011;19119;52.474;13.710;2023-07-02T03:15:06;7.95;;;3.92;;
32748;SDS011;19119;52.474;13.710;2023-07-02T03:17:33;5.43;;;4.28;;
32748;SDS011;19119;52.474;13.710;2023-07-02T03:19:58;6.47;;;3.80;;
32748;SDS011;19119;52.474;13.710;2023-07-02T03:22:24;5.18;;;3.28;;
32748;SDS011;19119;52.474;13.710;2023-07-02T03:24:49;8.60;;;3.25;;
32748;SDS011;19119;52.474;13.710;2023-07-02T03:27:15;5.30;;;3.80;;
32748;SDS011;19119;52.474;13.710;2023-07-02T03:29:40;7.18;;;3.88;;
32748;SDS011;19119;52.474;13.710;2023-07-02T03:32:06;4.88;;;3.28;;
32748;SDS011;19119;52.474;13.710;2023-07-02T03:34:32;4.93;;;3.60;;
32748;SDS011;19119;52.474;13.710;2023-07-02T03:36:57;7.13;;;3.45;;
32748;SDS011;19119;52.474;13.710;2023-07-02T03:39:23;6.60;;;3.42;;
32748;SDS011;19119;52.474;13.710;2023-07-02T03:41:48;6.75;;;3.67;;
32748;SDS011;19119;52.474;13.710;2023-07-02T03:44:14;7.68;;;4.13;;
32748;SDS011;19119;52.474;13.710;2023-07-02T03:46:39;6.20;;;3.35;;
32748;SDS011;19119;52.474;13.710;2023-07-02T03:49:04;5.43;;;3.63;;
32748;SDS011;19119;52.474;13.710;2023-07-02T03:51:30;8.20;;;3.40;;
32748;SDS011;19119;52.474;13.710;2023-07-02T03:53:57;5.85;;;3.55;;
32748;SDS011;19119;52.474;13.710;2023-07-02T03:56:23;4.30;;;3.45;;
32748;SDS011;19119;52.474;13.710;2023-07-02T03:58:49;5.55;;;3.42;;
32748;SDS011;19119;52.474;13.710;2023-07-02T04:01:15;4.57;;;3.47;;
32748;SDS011;19119;52.474;13.710;2023-07-02T04:03:42;3.95;;;3.10;;
32748;SDS011;19119;52.474;13.710;2023-07-02T04:06:12;2.92;;;2.58;;
32748;SDS011;19119;52.474;13.710;2023-07-02T04:08:38;3.42;;;3.08;;
32748;SDS011;19119;52.474;13.710;2023-07-02T04:11:03;5.57;;;3.05;;
32748;SDS011;19119;52.474;13.710;2023-07-02T04:13:29;5.20;;;3.05;;
32748;SDS011;19119;52.474;13.710;2023-07-02T04:15:54;5.72;;;2.70;;
32748;SDS011;19119;52.474;13.710;2023-07-02T04:18:20;3.70;;;2.70;;
32748;SDS011;19119;52.474;13.710;2023-07-02T04:20:45;5.28;;;2.97;;
32748;SDS011;19119;52.474;13.710;2023-07-02T04:23:11;2.63;;;2.20;;
32748;SDS011;19119;52.474;13.710;2023-07-02T04:25:36;4.57;;;2.72;;
32748;SDS011;19119;52.474;13.710;2023-07-02T04:28:02;7.40;;;3.30;;
32748;SDS011;19119;52.474;13.710;2023-07-02T04:30:27;10.65;;;3.00;;
32748;SDS011;19119;52.474;13.710;2023-07-02T04:32:53;3.22;;;2.22;;
32748;SDS011;19119;52.474;13.710;2023-07-02T04:35:18;4.38;;;2.60;;
32748;SDS011;19119;52.474;13.710;2023-07-02T04:37:44;4.30;;;2.58;;
32748;SDS011;19119;52.474;13.710;2023-07-02T04:40:10;3.58;;;2.47;;
32748;SDS011;19119;52.474;13.710;2023-07-02T04:42:36;4.68;;;2.53;;
32748;SDS011;19119;52.474;13.710;2023-07-02T04:45:03;4.03;;;2.50;;
32748;SDS011;19119;52.474;13.710;2023-07-02T04:47:29;4.28;;;2.90;;
32748;SDS011;19119;52.474;13.710;2023-07-02T04:49:55;5.90;;;3.08;;
32748;SDS011;19119;52.474;13.710;2023-07-02T04:52:21;5.57;;;2.35;;
32748;SDS011;19119;52.474;13.710;2023-07-02T04:54:46;7.93;;;2.28;;
32748;SDS011;19119;52.474;13.710;2023-07-02T04:57:11;4.82;;;2.35;;
32748;SDS011;19119;52.474;13.710;2023-07-02T04:59:43;6.38;;;2.55;;
32748;SDS011;19119;52.474;13.710;2023-07-02T05:02:09;7.88;;;3.00;;
32748;SDS011;19119;52.474;13.710;2023-07-02T05:04:35;3.78;;;2.80;;
32748;SDS011;19119;52.474;13.710;2023-07-02T05:07:02;2.90;;;2.50;;
32748;SDS011;19119;52.474;13.710;2023-07-02T05:09:29;8.25;;;2.30;;
32748;SDS011;19119;52.474;13.710;2023-07-02T05:11:55;4.03;;;2.33;;
32748;SDS011;19119;52.474;13.710;2023-07-02T05:14:20;9.10;;;2.28;;
32748;SDS011;19119;52.474;13.710;2023-07-02T05:16:46;6.40;;;2.78;;
32748;SDS011;19119;52.474;13.710;2023-07-02T05:19:11;4.40;;;2.20;;
32748;SDS011;19119;52.474;13.710;2023-07-02T05:21:37;5.82;;;2.13;;
32748;SDS011;19119;52.474;13.710;2023-07-02T05:24:02;3.55;;;1.92;;
32748;SDS011;19119;52.474;13.710;2023-07-02T05:26:28;6.13;;;2.10;;
32748;SDS011;19119;52.474;13.710;2023-07-02T05:28:53;6.05;;;1.80;;
32748;SDS011;19119;52.474;13.710;2023-07-02T05:31:19;6.13;;;2.00;;
32748;SDS011;19119;52.474;13.710;2023-07-02T05:33:44;4.53;;;1.65;;
32748;SDS011;19119;52.474;13.710;2023-07-02T05:36:10;1.98;;;1.63;;
32748;SDS011;19119;52.474;13.710;2023-07-02T05:38:35;3.35;;;2.10;;
32748;SDS011;19119;52.474;13.710;2023-07-02T05:41:02;3.17;;;1.75;;
32748;SDS011;19119;52.474;13.710;2023-07-02T05:43:28;2.65;;;1.92;;
32748;SDS011;19119;52.474;13.710;2023-07-02T05:45:53;3.58;;;1.77;;
32748;SDS011;19119;52.474;13.710;2023-07-02T05:48:19;2.90;;;1.80;;
32748;SDS011;19119;52.474;13.710;2023-07-02T05:50:44;4.05;;;2.10;;
32748;SDS011;19119;52.474;13.710;2023-07-02T05:53:10;5.15;;;1.98;;
32748;SDS011;19119;52.474;13.710;2023-07-02T05:55:36;2.63;;;1.80;;
32748;SDS011;19119;52.474;13.710;2023-07-02T05:58:02;3.33;;;2.13;;
32748;SDS011;19119;52.474;13.710;2023-07-02T06:00:28;5.57;;;2.03;;
32748;SDS011;19119;52.474;13.710;2023-07-02T06:02:54;3.75;;;2.05;;
32748;SDS011;19119;52.474;13.710;2023-07-02T06:05:19;4.65;;;2.00;;
32748;SDS011;19119;52.474;13.710;2023-07-02T06:07:45;3.70;;;2.33;;
32748;SDS011;19119;52.474;13.710;2023-07-02T06:10:10;5.40;;;2.67;;
32748;SDS011;19119;52.474;13.710;2023-07-02T06:12:36;7.65;;;2.88;;
32748;SDS011;19119;52.474;13.710;2023-07-02T06:15:01;4.40;;;2.40;;
32748;SDS011;19119;52.474;13.710;2023-07-02T06:17:27;5.75;;;2.65;;
32748;SDS011;19119;52.474;13.710;2023-07-02T06:19:55;5.07;;;2.90;;
32748;SDS011;19119;52.474;13.710;2023-07-02T06:22:21;5.40;;;2.10;;
32748;SDS011;19119;52.474;13.710;2023-07-02T06:24:47;5.68;;;3.03;;
32748;SDS011;19119;52.474;13.710;2023-07-02T06:27:12;6.07;;;2.90;;
32748;SDS011;19119;52.474;13.710;2023-07-02T06:29:38;4.55;;;2.60;;
32748;SDS011;19119;52.474;13.710;2023-07-02T06:32:03;5.55;;;2.28;;
32748;SDS011;19119;52.474;13.710;2023-07-02T06:34:29;5.43;;;2.08;;
32748;SDS011;19119;52.474;13.710;2023-07-02T06:36:55;4.03;;;2.17;;
32748;SDS011;19119;52.474;13.710;2023-07-02T06:39:20;4.32;;;1.90;;
32748;SDS011;19119;52.474;13.710;2023-07-02T06:41:46;4.47;;;2.03;;
32748;SDS011;19119;52.474;13.710;2023-07-02T06:44:12;9.27;;;2.50;;
32748;SDS011;19119;52.474;13.710;2023-07-02T06:46:37;5.05;;;2.40;;
32748;SDS011;19119;52.474;13.710;2023-07-02T06:49:04;4.88;;;2.00;;
32748;SDS011;19119;52.474;13.710;2023-07-02T06:51:30;6.53;;;2.65;;
32748;SDS011;19119;52.474;13.710;2023-07-02T06:53:55;4.03;;;1.85;;
32748;SDS011;19119;52.474;13.710;2023-07-02T06:56:21;6.03;;;2.83;;
32748;SDS011;19119;52.474;13.710;2023-07-02T06:58:46;5.07;;;2.10;;
32748;SDS011;19119;52.474;13.710;2023-07-02T07:01:12;3.85;;;1.90;;
32748;SDS011;19119;52.474;13.710;2023-07-02T07:03:37;3.97;;;2.00;;
32748;SDS011;19119;52.474;13.710;2023-07-02T07:06:03;5.68;;;2.90;;
32748;SDS011;19119;52.474;13.710;2023-07-02T07:08:28;5.93;;;2.08;;
32748;SDS011;19119;52.474;13.710;2023-07-02T07:10:54;5.10;;;2.47;;
32748;SDS011;19119;52.474;13.710;2023-07-02T07:13:19;3.67;;;2.08;;
32748;SDS011;19119;52.474;13.710;2023-07-02T07:15:45;3.70;;;2.17;;
32748;SDS011;19119;52.474;13.710;2023-07-02T07:18:10;4.13;;;2.05;;
32748;SDS011;19119;52.474;13.710;2023-07-02T07:20:36;3.42;;;2.38;;
32748;SDS011;19119;52.474;13.710;2023-07-02T07:23:05;3.67;;;1.67;;
32748;SDS011;19119;52.474;13.710;2023-07-02T07:25:31;6.32;;;2.08;;
32748;SDS011;19119;52.474;13.710;2023-07-02T07:27:57;3.03;;;1.80;;
32748;SDS011;19119;52.474;13.710;2023-07-02T07:30:24;4.60;;;1.92;;
32748;SDS011;19119;52.474;13.710;2023-07-02T07:32:50;3.65;;;2.25;;
32748;SDS011;19119;52.474;13.710;2023-07-02T07:35:17;3.88;;;1.90;;
32748;SDS011;19119;52.474;13.710;2023-07-02T07:37:43;4.15;;;2.35;;
32748;SDS011;19119;52.474;13.710;2023-07-02T07:40:08;4.82;;;2.05;;
32748;SDS011;19119;52.474;13.710;2023-07-02T07:42:34;4.57;;;2.20;;
32748;SDS011;19119;52.474;13.710;2023-07-02T07:45:00;4.43;;;2.08;;
32748;SDS011;19119;52.474;13.710;2023-07-02T07:47:25;5.53;;;2.58;;
32748;SDS011;19119;52.474;13.710;2023-07-02T07:49:51;4.90;;;2.22;;
32748;SDS011;19119;52.474;13.710;2023-07-02T07:52:16;4.68;;;2.35;;
32748;SDS011;19119;52.474;13.710;2023-07-02T07:54:43;5.68;;;2.22;;
32748;SDS011;19119;52.474;13.710;2023-07-02T07:57:08;5.03;;;1.98;;
32748;SDS011;19119;52.474;13.710;2023-07-02T07:59:34;3.92;;;2.30;;
32748;SDS011;19119;52.474;13.710;2023-07-02T08:01:59;5.47;;;2.40;;
32748;SDS011;19119;52.474;13.710;2023-07-02T08:04:26;5.80;;;2.13;;
32748;SDS011;19119;52.474;13.710;2023-07-02T08:06:52;3.25;;;1.92;;
32748;SDS011;19119;52.474;13.710;2023-07-02T08:09:19;6.25;;;2.30;;
32748;SDS011;19119;52.474;13.710;2023-07-02T08:11:45;5.15;;;2.20;;
32748;SDS011;19119;52.474;13.710;2023-07-02T08:14:11;3.33;;;2.15;;
32748;SDS011;19119;52.474;13.710;2023-07-02T08:16:37;4.88;;;2.33;;
32748;SDS011;19119;52.474;13.710;2023-07-02T08:19:03;4.25;;;2.15;;
32748;SDS011;19119;52.474;13.710;2023-07-02T08:21:28;4.93;;;2.10;;
32748;SDS011;19119;52.474;13.710;2023-07-02T08:23:54;4.35;;;1.90;;
32748;SDS011;19119;52.474;13.710;2023-07-02T08:26:19;4.50;;;1.85;;
32748;SDS011;19119;52.474;13.710;2023-07-02T08:28:47;5.10;;;1.98;;
32748;SDS011;19119;52.474;13.710;2023-07-02T08:31:12;3.47;;;2.10;;
32748;SDS011;19119;52.474;13.710;2023-07-02T08:33:38;5.47;;;2.30;;
32748;SDS011;19119;52.474;13.710;2023-07-02T08:36:05;4.72;;;1.98;;
32748;SDS011;19119;52.474;13.710;2023-07-02T08:38:30;13.45;;;7.93;;
32748;SDS011;19119;52.474;13.710;2023-07-02T08:40:56;34.50;;;18.02;;
32748;SDS011;19119;52.474;13.710;2023-07-02T08:43:23;13.02;;;6.70;;
32748;SDS011;19119;52.474;13.710;2023-07-02T08:45:51;4.38;;;3.03;;
32748;SDS011;19119;52.474;13.710;2023-07-02T08:48:17;26.23;;;11.57;;
32748;SDS011;19119;52.474;13.710;2023-07-02T08:50:47;10.77;;;5.13;;
32748;SDS011;19119;52.474;13.710;2023-07-02T08:53:16;13.27;;;6.13;;
32748;SDS011;19119;52.474;13.710;2023-07-02T08:55:41;8.93;;;5.00;;
32748;SDS011;19119;52.474;13.710;2023-07-02T08:58:10;14.13;;;8.43;;
32748;SDS011;19119;52.474;13.710;2023-07-02T09:00:36;12.52;;;6.93;;
32748;SDS011;19119;52.474;13.710;2023-07-02T09:03:10;6.93;;;3.38;;
32748;SDS011;19119;52.474;13.710;2023-07-02T09:05:49;20.63;;;11.50;;
32748;SDS011;19119;52.474;13.710;2023-07-02T09:08:24;7.75;;;4.47;;
32748;SDS011;19119;52.474;13.710;2023-07-02T09:10:50;14.48;;;7.72;;
32748;SDS011;19119;52.474;13.710;2023-07-02T09:13:16;8.80;;;3.75;;
32748;SDS011;19119;52.474;13.710;2023-07-02T09:15:41;11.75;;;5.97;;
32748;SDS011;19119;52.474;13.710;2023-07-02T09:18:14;12.05;;;5.03;;
32748;SDS011;19119;52.474;13.710;2023-07-02T09:20:40;16.25;;;7.43;;
32748;SDS011;19119;52.474;13.710;2023-07-02T09:23:06;21.17;;;7.88;;
32748;SDS011;19119;52.474;13.710;2023-07-02T09:25:38;10.23;;;4.65;;
32748;SDS011;19119;52.474;13.710;2023-07-02T09:28:18;8.02;;;3.85;;
32748;SDS011;19119;52.474;13.710;2023-07-02T09:30:48;6.28;;;3.45;;
32748;SDS011;19119;52.474;13.710;2023-07-02T09:33:23;10.93;;;3.20;;
32748;SDS011;19119;52.474;13.710;2023-07-02T09:35:50;7.07;;;3.20;;
32748;SDS011;19119;52.474;13.710;2023-07-02T09:38:17;7.50;;;3.17;;
32748;SDS011;19119;52.474;13.710;2023-07-02T09:40:47;5.90;;;2.92;;
32748;SDS011;19119;52.474;13.710;2023-07-02T09:43:15;5.20;;;3.38;;
32748;SDS011;19119;52.474;13.710;2023-07-02T09:45:46;5.25;;;2.97;;
32748;SDS011;19119;52.474;13.710;2023-07-02T09:48:13;5.35;;;3.35;;
32748;SDS011;19119;52.474;13.710;2023-07-02T09:50:44;11.52;;;4.35;;
32748;SDS011;19119;52.474;13.710;2023-07-02T09:53:11;9.82;;;4.75;;
32748;SDS011;19119;52.474;13.710;2023-07-02T09:55:38;8.55;;;3.72;;
32748;SDS011;19119;52.474;13.710;2023-07-02T09:58:08;6.75;;;3.33;;
32748;SDS011;19119;52.474;13.710;2023-07-02T10:00:34;8.60;;;3.67;;
32748;SDS011;19119;52.474;13.710;2023-07-02T10:03:02;6.95;;;3.25;;
32748;SDS011;19119;52.474;13.710;2023-07-02T10:05:29;7.45;;;3.20;;
32748;SDS011;19119;52.474;13.710;2023-07-02T10:08:17;8.82;;;3.30;;
32748;SDS011;19119;52.474;13.710;2023-07-02T10:10:42;8.60;;;3.30;;
32748;SDS011;19119;52.474;13.710;2023-07-02T10:13:08;7.45;;;3.50;;
32748;SDS011;19119;52.474;13.710;2023-07-02T10:15:34;8.82;;;3.45;;
32748;SDS011;19119;52.474;13.710;2023-07-02T10:18:03;5.22;;;2.90;;
32748;SDS011;19119;52.474;13.710;2023-07-02T10:20:35;7.35;;;3.30;;
32748;SDS011;19119;52.474;13.710;2023-07-02T10:23:03;9.02;;;3.13;;
32748;SDS011;19119;52.474;13.710;2023-07-02T10:25:33;7.50;;;3.17;;
32748;SDS011;19119;52.474;13.710;2023-07-02T10:28:02;6.85;;;3.00;;
32748;SDS011;19119;52.474;13.710;2023-07-02T10:30:41;6.82;;;3.70;;
32748;SDS011;19119;52.474;13.710;2023-07-02T10:33:11;8.13;;;3.30;;
32748;SDS011;19119;52.474;13.710;2023-07-02T10:35:38;8.90;;;4.15;;
32748;SDS011;19119;52.474;13.710;2023-07-02T10:38:07;8.65;;;4.25;;
32748;SDS011;19119;52.474;13.710;2023-07-02T10:40:32;6.53;;;3.42;;
32748;SDS011;19119;52.474;13.710;2023-07-02T10:42:58;10.50;;;4.25;;
32748;SDS011;19119;52.474;13.710;2023-07-02T10:45:34;9.00;;;3.65;;
32748;SDS011;19119;52.474;13.710;2023-07-02T10:48:08;11.63;;;3.55;;
32748;SDS011;19119;52.474;13.710;2023-07-02T10:50:34;11.27;;;4.68;;
32748;SDS011;19119;52.474;13.710;2023-07-02T10:53:00;10.05;;;4.30;;
32748;SDS011;19119;52.474;13.710;2023-07-02T10:55:26;8.98;;;4.53;;
32748;SDS011;19119;52.474;13.710;2023-07-02T10:58:06;9.18;;;4.40;;
32748;SDS011;19119;52.474;13.710;2023-07-02T11:00:32;10.45;;;4.50;;
32748;SDS011;19119;52.474;13.710;2023-07-02T11:02:58;10.25;;;4.65;;
32748;SDS011;19119;52.474;13.710;2023-07-02T11:05:24;15.93;;;4.82;;
32748;SDS011;19119;52.474;13.710;2023-07-02T11:07:50;11.48;;;4.88;;
32748;SDS011;19119;52.474;13.710;2023-07-02T11:10:22;9.70;;;4.38;;
32748;SDS011;19119;52.474;13.710;2023-07-02T11:12:49;14.27;;;5.00;;
32748;SDS011;19119;52.474;13.710;2023-07-02T11:15:15;11.55;;;5.18;;
32748;SDS011;19119;52.474;13.710;2023-07-02T11:17:42;15.68;;;4.80;;
32748;SDS011;19119;52.474;13.710;2023-07-02T11:20:08;14.95;;;7.93;;
32748;SDS011;19119;52.474;13.710;2023-07-02T11:22:35;15.65;;;9.40;;
32748;SDS011;19119;52.474;13.710;2023-07-02T11:25:12;15.85;;;6.68;;
32748;SDS011;19119;52.474;13.710;2023-07-02T11:27:40;15.25;;;8.27;;
32748;SDS011;19119;52.474;13.710;2023-07-02T11:30:06;12.65;;;6.05;;
32748;SDS011;19119;52.474;13.710;2023-07-02T11:32:51;10.70;;;5.10;;
32748;SDS011;19119;52.474;13.710;2023-07-02T11:35:19;10.32;;;5.15;;
32748;SDS011;19119;52.474;13.710;2023-07-02T11:37:46;13.13;;;5.05;;
32748;SDS011;19119;52.474;13.710;2023-07-02T11:40:13;11.98;;;5.18;;
32748;SDS011;19119;52.474;13.710;2023-07-02T11:42:40;11.00;;;4.78;;
32748;SDS011;19119;52.474;13.710;2023-07-02T11:45:06;13.07;;;4.88;;
32748;SDS011;19119;52.474;13.710;2023-07-02T11:47:32;16.10;;;6.55;;
32748;SDS011;19119;52.474;13.710;2023-07-02T11:49:57;14.60;;;5.70;;
32748;SDS011;19119;52.474;13.710;2023-07-02T11:52:24;14.43;;;6.40;;
32748;SDS011;19119;52.474;13.710;2023-07-02T11:54:50;21.88;;;6.70;;
32748;SDS011;19119;52.474;13.710;2023-07-02T11:57:15;14.23;;;5.65;;
32748;SDS011;19119;52.474;13.710;2023-07-02T11:59:41;14.93;;;5.45;;
32748;SDS011;19119;52.474;13.710;2023-07-02T12:02:07;17.00;;;5.65;;
32748;SDS011;19119;52.474;13.710;2023-07-02T12:04:32;12.70;;;4.90;;
32748;SDS011;19119;52.474;13.710;2023-07-02T12:06:58;10.82;;;5.03;;
32748;SDS011;19119;52.474;13.710;2023-07-02T12:09:26;11.07;;;4.90;;
32748;SDS011;19119;52.474;13.710;2023-07-02T12:11:52;13.73;;;6.05;;
32748;SDS011;19119;52.474;13.710;2023-07-02T12:14:18;11.90;;;5.32;;
32748;SDS011;19119;52.474;13.710;2023-07-02T12:16:43;21.27;;;6.45;;
32748;SDS011;19119;52.474;13.710;2023-07-02T12:19:08;11.18;;;5.47;;
32748;SDS011;19119;52.474;13.710;2023-07-02T12:21:35;13.50;;;5.53;;
32748;SDS011;19119;52.474;13.710;2023-07-02T12:24:00;18.25;;;5.57;;
32748;SDS011;19119;52.474;13.710;2023-07-02T12:26:26;17.70;;;5.03;;
32748;SDS011;19119;52.474;13.710;2023-07-02T12:28:51;11.43;;;5.35;;
32748;SDS011;19119;52.474;13.710;2023-07-02T12:31:17;16.92;;;5.22;;
32748;SDS011;19119;52.474;13.710;2023-07-02T12:33:42;16.05;;;5.05;;
32748;SDS011;19119;52.474;13.710;2023-07-02T12:36:07;12.00;;;5.07;;
32748;SDS011;19119;52.474;13.710;2023-07-02T12:38:33;12.82;;;4.90;;
32748;SDS011;19119;52.474;13.710;2023-07-02T12:40:58;11.63;;;4.97;;
32748;SDS011;19119;52.474;13.710;2023-07-02T12:43:24;15.65;;;5.85;;
32748;SDS011;19119;52.474;13.710;2023-07-02T12:45:49;9.75;;;4.50;;
32748;SDS011;19119;52.474;13.710;2023-07-02T12:48:16;14.82;;;5.05;;
32748;SDS011;19119;52.474;13.710;2023-07-02T12:50:41;12.65;;;4.30;;
32748;SDS011;19119;52.474;13.710;2023-07-02T12:53:17;9.57;;;5.00;;
32748;SDS011;19119;52.474;13.710;2023-07-02T12:55:43;9.95;;;4.82;;
32748;SDS011;19119;52.474;13.710;2023-07-02T12:58:08;14.20;;;5.68;;
32748;SDS011;19119;52.474;13.710;2023-07-02T13:00:33;12.15;;;5.03;;
32748;SDS011;19119;52.474;13.710;2023-07-02T13:02:59;11.70;;;5.40;;
32748;SDS011;19119;52.474;13.710;2023-07-02T13:05:24;17.58;;;6.18;;
32748;SDS011;19119;52.474;13.710;2023-07-02T13:07:50;13.25;;;5.22;;
32748;SDS011;19119;52.474;13.710;2023-07-02T13:10:15;11.45;;;4.68;;
32748;SDS011;19119;52.474;13.710;2023-07-02T13:12:41;13.63;;;5.60;;
32748;SDS011;19119;52.474;13.710;2023-07-02T13:15:06;12.95;;;5.32;;
32748;SDS011;19119;52.474;13.710;2023-07-02T13:17:32;14.52;;;5.40;;
32748;SDS011;19119;52.474;13.710;2023-07-02T13:19:58;15.30;;;5.18;;
32748;SDS011;19119;52.474;13.710;2023-07-02T13:22:23;16.75;;;5.10;;
32748;SDS011;19119;52.474;13.710;2023-07-02T13:24:49;11.57;;;5.28;;
32748;SDS011;19119;52.474;13.710;2023-07-02T13:27:15;12.82;;;4.57;;
32748;SDS011;19119;52.474;13.710;2023-07-02T13:29:41;14.52;;;5.07;;
32748;SDS011;19119;52.474;13.710;2023-07-02T13:32:07;12.77;;;5.10;;
32748;SDS011;19119;52.474;13.710;2023-07-02T13:34:32;13.20;;;5.20;;
32748;SDS011;19119;52.474;13.710;2023-07-02T13:36:58;13.25;;;6.03;;
32748;SDS011;19119;52.474;13.710;2023-07-02T13:39:23;12.18;;;6.20;;
32748;SDS011;19119;52.474;13.710;2023-07-02T13:41:50;13.32;;;5.57;;
32748;SDS011;19119;52.474;13.710;2023-07-02T13:44:16;13.43;;;5.32;;
32748;SDS011;19119;52.474;13.710;2023-07-02T13:46:42;12.82;;;5.10;;
32748;SDS011;19119;52.474;13.710;2023-07-02T13:49:09;16.00;;;5.07;;
32748;SDS011;19119;52.474;13.710;2023-07-02T13:51:35;12.27;;;5.07;;
32748;SDS011;19119;52.474;13.710;2023-07-02T13:54:01;9.45;;;4.32;;
32748;SDS011;19119;52.474;13.710;2023-07-02T13:56:26;10.25;;;4.97;;
32748;SDS011;19119;52.474;13.710;2023-07-02T14:01:20;11.68;;;5.82;;
32748;SDS011;19119;52.474;13.710;2023-07-02T14:03:46;12.52;;;6.03;;
32748;SDS011;19119;52.474;13.710;2023-07-02T14:06:11;13.48;;;6.03;;
32748;SDS011;19119;52.474;13.710;2023-07-02T14:08:37;14.25;;;5.72;;
32748;SDS011;19119;52.474;13.710;2023-07-02T14:11:03;12.00;;;5.13;;
32748;SDS011;19119;52.474;13.710;2023-07-02T14:13:28;10.65;;;5.30;;
32748;SDS011;19119;52.474;13.710;2023-07-02T14:15:54;10.52;;;4.82;;
32748;SDS011;19119;52.474;13.710;2023-07-02T14:18:19;12.40;;;4.45;;
32748;SDS011;19119;52.474;13.710;2023-07-02T14:20:45;11.77;;;4.75;;
32748;SDS011;19119;52.474;13.710;2023-07-02T14:23:10;12.98;;;5.03;;
32748;SDS011;19119;52.474;13.710;2023-07-02T14:25:36;13.57;;;4.85;;
32748;SDS011;19119;52.474;13.710;2023-07-02T14:28:01;12.02;;;5.65;;